createdAt,value
2018-06-17T00:02:03.894Z,15.40
2018-06-17T00:04:32.350Z,15.30
2018-06-17T00:07:00.740Z,15.20
2018-06-17T00:09:29.208Z,15.20
2018-06-17T00:11:57.651Z,15.20
2018-06-17T00:14:26.241Z,15.20
2018-06-17T00:16:54.692Z,15.10
2018-06-17T00:19:23.128Z,15.10
2018-06-17T00:21:52.159Z,15.00
2018-06-17T00:24:20.606Z,15.00
2018-06-17T00:26:49.049Z,14.90
2018-06-17T00:29:17.483Z,14.90
2018-06-17T00:31:45.925Z,14.90
2018-06-17T00:34:14.413Z,14.80
2018-06-17T00:36:42.870Z,14.70
2018-06-17T00:39:12.170Z,14.70
2018-06-17T00:41:41.004Z,14.50
2018-06-17T00:44:09.501Z,14.50
2018-06-17T00:46:37.953Z,14.50
2018-06-17T00:49:06.380Z,14.50
2018-06-17T00:51:34.830Z,14.50
2018-06-17T00:54:03.274Z,14.40
2018-06-17T00:56:31.677Z,14.40
2018-06-17T00:59:00.108Z,14.40
2018-06-17T01:01:28.539Z,14.30
2018-06-17T01:03:56.959Z,14.30
2018-06-17T01:06:25.378Z,14.30
2018-06-17T01:08:53.843Z,14.30
2018-06-17T01:11:22.272Z,14.30
2018-06-17T01:13:50.695Z,14.30
2018-06-17T01:16:19.133Z,14.30
2018-06-17T01:18:47.591Z,14.30
2018-06-17T01:21:16.159Z,14.30
2018-06-17T01:23:44.630Z,14.20
2018-06-17T01:26:13.034Z,14.30
2018-06-17T01:28:41.529Z,14.20
2018-06-17T01:31:09.974Z,14.20
2018-06-17T01:33:38.370Z,14.20
2018-06-17T01:36:06.814Z,14.10
2018-06-17T01:38:35.893Z,14.10
2018-06-17T01:41:04.322Z,14.10
2018-06-17T01:43:32.768Z,14.20
2018-06-17T01:46:01.192Z,14.10
2018-06-17T01:48:29.641Z,14.10
2018-06-17T01:50:58.081Z,14.10
2018-06-17T01:53:26.534Z,14.00
2018-06-17T01:55:54.958Z,14.00
2018-06-17T01:58:23.397Z,14.00
2018-06-17T02:00:51.853Z,13.90
2018-06-17T02:03:25.478Z,13.90
2018-06-17T02:07:01.419Z,13.90
2018-06-17T02:09:35.024Z,13.80
2018-06-17T02:12:08.881Z,13.80
2018-06-17T02:14:42.756Z,13.70
2018-06-17T02:17:11.193Z,13.70
2018-06-17T02:19:39.606Z,13.60
2018-06-17T02:22:08.115Z,13.70
2018-06-17T02:24:36.739Z,13.60
2018-06-17T02:27:05.361Z,13.60
2018-06-17T02:29:33.800Z,13.60
2018-06-17T02:32:02.340Z,13.50
2018-06-17T02:34:30.750Z,13.50
2018-06-17T02:36:59.360Z,13.40
2018-06-17T02:39:27.787Z,13.40
2018-06-17T02:41:56.793Z,13.40
2018-06-17T02:44:25.223Z,13.40
2018-06-17T02:46:58.915Z,13.30
2018-06-17T02:49:35.013Z,13.30
2018-06-17T02:52:09.005Z,13.20
2018-06-17T02:54:40.043Z,13.20
2018-06-17T02:57:09.793Z,13.20
2018-06-17T02:59:38.460Z,13.10
2018-06-17T03:02:07.102Z,13.10
2018-06-17T03:04:35.521Z,13.10
2018-06-17T03:07:04.005Z,13.00
2018-06-17T03:09:32.460Z,13.00
2018-06-17T03:12:00.896Z,13.00
2018-06-17T03:14:29.309Z,12.90
2018-06-17T03:16:57.802Z,13.00
2018-06-17T03:19:26.286Z,13.00
2018-06-17T03:21:54.709Z,13.10
2018-06-17T03:24:28.470Z,13.10
2018-06-17T03:27:02.457Z,13.20
2018-06-17T03:29:36.231Z,13.20
2018-06-17T03:32:10.038Z,13.30
2018-06-17T03:34:38.494Z,13.40
2018-06-17T03:37:06.930Z,13.30
2018-06-17T03:39:35.402Z,13.30
2018-06-17T03:42:03.856Z,13.30
2018-06-17T03:44:32.333Z,13.30
2018-06-17T03:47:00.768Z,13.40
2018-06-17T03:49:29.176Z,13.30
2018-06-17T03:51:57.649Z,13.50
2018-06-17T03:54:26.080Z,13.60
2018-06-17T03:56:54.702Z,13.60
2018-06-17T03:59:23.162Z,13.70
2018-06-17T04:01:51.586Z,13.70
2018-06-17T04:04:22.134Z,13.70
2018-06-17T04:09:18.991Z,13.80
2018-06-17T04:11:47.442Z,14.00
2018-06-17T04:14:15.904Z,14.20
2018-06-17T04:16:44.358Z,14.20
2018-06-17T04:19:12.822Z,14.30
2018-06-17T04:21:41.280Z,14.30
2018-06-17T04:24:09.689Z,14.50
2018-06-17T04:31:34.396Z,14.70
2018-06-17T04:34:02.840Z,14.80
2018-06-17T04:36:31.299Z,14.90
2018-06-17T04:38:59.825Z,14.90
2018-06-17T04:41:28.250Z,15.00
2018-06-17T04:43:56.676Z,15.00
2018-06-17T04:46:25.154Z,15.10
2018-06-17T04:48:53.794Z,15.10
2018-06-17T04:51:22.246Z,15.10
2018-06-17T04:53:50.670Z,15.10
2018-06-17T04:56:19.131Z,15.00
2018-06-17T04:58:47.617Z,15.10
2018-06-17T05:01:16.056Z,15.10
2018-06-17T05:03:44.501Z,15.20
2018-06-17T05:06:12.936Z,15.10
2018-06-17T05:08:41.362Z,15.20
2018-06-17T05:11:09.845Z,15.10
2018-06-17T05:13:38.308Z,15.10
2018-06-17T05:16:06.796Z,15.10
2018-06-17T05:18:35.231Z,15.10
2018-06-17T05:21:03.797Z,15.10
2018-06-17T05:23:32.254Z,15.20
2018-06-17T05:26:00.725Z,15.20
2018-06-17T05:28:29.385Z,15.30
2018-06-17T05:30:57.856Z,15.30
2018-06-17T05:33:26.307Z,15.30
2018-06-17T05:35:55.062Z,15.40
2018-06-17T05:38:23.502Z,15.40
2018-06-17T05:40:52.839Z,15.40
2018-06-17T05:43:21.330Z,15.40
2018-06-17T05:45:49.779Z,15.40
2018-06-17T05:48:18.256Z,15.40
2018-06-17T05:50:46.681Z,15.40
2018-06-17T05:53:15.141Z,15.40
2018-06-17T05:55:43.632Z,15.50
2018-06-17T05:58:12.059Z,15.60
2018-06-17T06:00:40.541Z,15.60
2018-06-17T06:03:08.992Z,15.60
2018-06-17T06:05:37.463Z,15.60
2018-06-17T06:08:05.994Z,15.70
2018-06-17T06:10:34.438Z,15.70
2018-06-17T06:13:02.900Z,15.70
2018-06-17T06:15:31.334Z,15.70
2018-06-17T06:17:59.819Z,15.80
2018-06-17T06:20:28.396Z,15.80
2018-06-17T06:22:56.877Z,15.80
2018-06-17T06:25:25.350Z,15.90
2018-06-17T06:27:53.793Z,15.90
2018-06-17T06:30:22.339Z,16.00
2018-06-17T06:32:50.808Z,16.10
2018-06-17T06:35:19.300Z,16.20
2018-06-17T06:37:47.776Z,16.20
2018-06-17T06:40:16.206Z,16.30
2018-06-17T06:42:44.715Z,16.40
2018-06-17T06:47:41.322Z,16.50
2018-06-17T06:50:09.757Z,16.60
2018-06-17T06:52:38.187Z,16.70
2018-06-17T06:55:06.656Z,16.80
2018-06-17T06:57:35.111Z,17.00
2018-06-17T07:00:03.534Z,17.20
2018-06-17T07:05:19.190Z,17.60
2018-06-17T07:07:58.882Z,18.10
2018-06-17T07:10:29.454Z,18.30
2018-06-17T07:12:57.941Z,18.60
2018-06-17T07:15:38.705Z,18.80
2018-06-17T07:18:18.530Z,19.10
2018-06-17T07:20:47.201Z,19.20
2018-06-17T07:23:15.676Z,19.30
2018-06-17T07:26:54.780Z,19.10
2018-06-17T07:29:36.828Z,19.30
2018-06-17T07:32:05.274Z,19.60
2018-06-17T07:34:33.926Z,20.00
2018-06-17T07:37:03.229Z,20.20
2018-06-17T07:39:43.848Z,20.20
2018-06-17T07:42:12.290Z,20.50
2018-06-17T07:44:40.748Z,20.70
2018-06-17T07:47:09.287Z,20.30
2018-06-17T07:49:49.999Z,20.50
2018-06-17T07:52:30.965Z,20.60
2018-06-17T07:54:59.475Z,20.60
2018-06-17T07:57:29.140Z,20.60
2018-06-17T07:59:57.622Z,20.70
2018-06-17T08:02:26.087Z,20.90
2018-06-17T08:04:54.578Z,21.30
2018-06-17T08:07:23.015Z,21.70
2018-06-17T08:09:51.460Z,22.20
2018-06-17T08:12:19.923Z,23.00
2018-06-17T08:14:48.390Z,22.70
2018-06-17T08:17:16.841Z,24.20
2018-06-17T08:19:45.288Z,24.60
2018-06-17T08:22:14.004Z,25.70
2018-06-17T08:24:42.473Z,26.60
2018-06-17T08:27:10.931Z,27.30
2018-06-17T08:29:39.542Z,27.30
2018-06-17T08:32:07.994Z,26.70
2018-06-17T08:34:36.521Z,26.60
2018-06-17T08:37:05.018Z,27.20
2018-06-17T08:39:33.428Z,27.10
2018-06-17T08:42:01.878Z,26.10
2018-06-17T08:44:30.305Z,26.60
2018-06-17T08:46:58.759Z,26.70
2018-06-17T08:49:27.228Z,26.90
2018-06-17T08:51:55.704Z,26.60
2018-06-17T08:54:24.170Z,26.80
2018-06-17T08:56:52.577Z,26.40
2018-06-17T08:59:21.045Z,26.70
2018-06-17T09:01:49.480Z,26.80
2018-06-17T09:04:17.906Z,26.80
2018-06-17T09:06:46.354Z,26.30
2018-06-17T09:09:15.290Z,26.90
2018-06-17T09:11:43.721Z,27.30
2018-06-17T09:14:12.165Z,27.20
2018-06-17T09:16:40.631Z,27.00
2018-06-17T09:19:09.097Z,27.30
2018-06-17T09:21:37.529Z,27.50
2018-06-17T09:24:06.687Z,27.10
2018-06-17T09:26:35.116Z,27.40
2018-06-17T09:29:03.581Z,27.70
2018-06-17T09:31:32.025Z,27.70
2018-06-17T09:34:00.489Z,27.30
2018-06-17T09:36:28.928Z,26.80
2018-06-17T09:38:57.389Z,27.40
2018-06-17T09:43:54.475Z,27.60
2018-06-17T09:46:22.884Z,27.90
2018-06-17T09:48:51.362Z,28.10
2018-06-17T09:51:19.836Z,28.30
2018-06-17T09:53:48.285Z,28.40
2018-06-17T09:56:16.728Z,28.80
2018-06-17T09:58:45.199Z,29.20
2018-06-17T10:01:13.640Z,29.30
2018-06-17T10:03:42.078Z,28.30
2018-06-17T10:06:11.428Z,28.60
2018-06-17T10:08:39.887Z,28.90
2018-06-17T10:11:09.368Z,28.40
2018-06-17T10:13:39.209Z,28.00
2018-06-17T10:16:08.295Z,28.00
2018-06-17T10:18:36.748Z,27.20
2018-06-17T10:21:05.293Z,27.40
2018-06-17T10:23:33.767Z,27.40
2018-06-17T10:26:02.254Z,27.10
2018-06-17T10:28:31.401Z,27.10
2018-06-17T10:31:01.134Z,26.90
2018-06-17T10:33:29.630Z,26.60
2018-06-17T10:35:58.151Z,26.50
2018-06-17T10:38:26.596Z,26.60
2018-06-17T10:40:55.100Z,26.50
2018-06-17T10:43:25.823Z,26.10
2018-06-17T10:45:54.282Z,26.10
2018-06-17T10:48:22.863Z,25.90
2018-06-17T10:50:51.329Z,25.90
2018-06-17T10:53:19.765Z,25.60
2018-06-17T10:55:48.313Z,26.00
2018-06-17T10:58:16.758Z,25.80
2018-06-17T11:00:45.214Z,25.80
2018-06-17T11:03:13.726Z,25.90
2018-06-17T11:05:42.257Z,26.30
2018-06-17T11:08:10.656Z,26.10
2018-06-17T11:10:39.100Z,26.00
2018-06-17T11:13:07.531Z,26.10
2018-06-17T11:15:36.000Z,26.60
2018-06-17T11:18:04.496Z,26.60
2018-06-17T11:20:32.953Z,25.90
2018-06-17T11:23:01.409Z,27.00
2018-06-17T11:25:29.887Z,27.40
2018-06-17T11:27:58.359Z,27.90
2018-06-17T11:30:26.829Z,27.60
2018-06-17T11:32:55.307Z,28.10
2018-06-17T11:35:23.736Z,28.50
2018-06-17T11:37:52.200Z,28.20
2018-06-17T11:40:20.666Z,28.60
2018-06-17T11:42:49.220Z,28.10
2018-06-17T11:45:17.760Z,28.80
2018-06-17T11:47:46.214Z,29.20
2018-06-17T11:50:15.041Z,28.60
2018-06-17T11:52:43.527Z,28.90
2018-06-17T11:55:11.999Z,28.70
2018-06-17T11:57:40.441Z,28.30
2018-06-17T12:00:10.033Z,29.00
2018-06-17T12:02:38.582Z,29.30
2018-06-17T12:05:07.092Z,30.10
2018-06-17T12:07:36.778Z,30.60
2018-06-17T12:10:05.289Z,30.30
2018-06-17T12:12:33.883Z,31.10
2018-06-17T12:15:02.434Z,30.90
2018-06-17T12:17:30.900Z,30.50
2018-06-17T12:19:59.363Z,30.40
2018-06-17T12:22:28.125Z,29.80
2018-06-17T12:24:56.642Z,28.00
2018-06-17T12:27:25.084Z,28.80
2018-06-17T12:29:54.185Z,28.70
2018-06-17T12:32:22.585Z,28.30
2018-06-17T12:34:51.066Z,28.00
2018-06-17T12:37:19.481Z,27.90
2018-06-17T12:39:47.946Z,27.70
2018-06-17T12:42:16.422Z,27.60
2018-06-17T12:47:13.092Z,27.10
2018-06-17T12:52:09.758Z,26.20
2018-06-17T12:54:38.310Z,26.20
2018-06-17T12:57:06.781Z,26.30
2018-06-17T12:59:35.965Z,26.10
2018-06-17T13:02:04.408Z,26.00
2018-06-17T13:04:32.887Z,25.90
2018-06-17T13:07:02.000Z,25.90
2018-06-17T13:09:30.437Z,25.60
2018-06-17T13:11:58.977Z,25.70
2018-06-17T13:14:27.417Z,25.60
2018-06-17T13:16:56.951Z,25.60
2018-06-17T13:19:25.442Z,25.30
2018-06-17T13:21:53.872Z,25.30
2018-06-17T13:24:22.349Z,25.30
2018-06-17T13:26:50.817Z,25.10
2018-06-17T13:29:19.264Z,25.10
2018-06-17T13:31:47.769Z,25.20
2018-06-17T13:34:16.293Z,25.20
2018-06-17T13:36:45.236Z,25.20
2018-06-17T13:39:13.720Z,25.00
2018-06-17T13:41:44.641Z,25.00
2018-06-17T13:44:13.234Z,24.70
2018-06-17T13:46:42.976Z,24.80
2018-06-17T13:49:11.455Z,24.80
2018-06-17T13:51:39.941Z,24.50
2018-06-17T13:54:09.043Z,24.70
2018-06-17T13:56:37.765Z,24.70
2018-06-17T13:59:06.275Z,24.60
2018-06-17T14:01:34.765Z,24.70
2018-06-17T14:04:03.388Z,24.80
2018-06-17T14:06:31.824Z,24.90
2018-06-17T14:09:00.274Z,24.80
2018-06-17T14:11:28.876Z,24.70
2018-06-17T14:13:57.381Z,24.70
2018-06-17T14:16:25.860Z,24.70
2018-06-17T14:18:54.346Z,24.60
2018-06-17T14:21:22.847Z,24.60
2018-06-17T14:23:51.318Z,24.60
2018-06-17T14:26:20.275Z,24.50
2018-06-17T14:28:48.745Z,24.30
2018-06-17T14:31:17.216Z,24.20
2018-06-17T14:33:45.638Z,24.20
2018-06-17T14:36:14.085Z,24.30
2018-06-17T14:38:42.520Z,24.20
2018-06-17T14:41:19.688Z,24.20
2018-06-17T14:43:53.382Z,24.30
2018-06-17T14:46:27.829Z,24.10
2018-06-17T14:49:01.674Z,24.20
2018-06-17T14:51:35.590Z,24.00
2018-06-17T14:54:04.064Z,24.00
2018-06-17T14:56:32.516Z,24.10
2018-06-17T14:59:00.934Z,24.10
2018-06-17T15:01:29.381Z,24.30
2018-06-17T15:03:57.995Z,24.20
2018-06-17T15:06:26.420Z,24.20
2018-06-17T15:08:54.886Z,24.30
2018-06-17T15:11:23.356Z,24.10
2018-06-17T15:13:51.796Z,24.00
2018-06-17T15:16:20.278Z,23.80
2018-06-17T15:18:48.745Z,23.60
2018-06-17T15:21:17.163Z,23.50
2018-06-17T15:23:45.652Z,23.30
2018-06-17T15:26:14.112Z,23.30
2018-06-17T15:28:42.538Z,22.90
2018-06-17T15:31:16.484Z,22.80
2018-06-17T15:33:50.374Z,22.60
2018-06-17T15:36:24.087Z,22.20
2018-06-17T15:38:54.987Z,22.60
2018-06-17T15:41:25.625Z,22.70
2018-06-17T15:43:56.108Z,22.20
2018-06-17T15:46:25.074Z,22.50
2018-06-17T15:48:53.684Z,22.40
2018-06-17T15:51:22.148Z,22.20
2018-06-17T15:53:50.655Z,22.10
2018-06-17T15:56:19.230Z,21.80
2018-06-17T15:58:47.685Z,21.50
2018-06-17T16:01:16.194Z,21.40
2018-06-17T16:03:44.658Z,21.50
2018-06-17T16:06:13.154Z,21.40
2018-06-17T16:08:41.624Z,21.30
2018-06-17T16:11:10.716Z,21.20
2018-06-17T16:13:44.645Z,20.80
2018-06-17T16:16:18.363Z,20.90
2018-06-17T16:18:52.553Z,20.90
2018-06-17T16:21:21.065Z,20.70
2018-06-17T16:23:49.708Z,20.90
2018-06-17T16:26:18.262Z,20.90
2018-06-17T16:28:46.710Z,21.00
2018-06-17T16:31:15.190Z,21.00
2018-06-17T16:33:43.649Z,20.90
2018-06-17T16:36:12.095Z,20.90
2018-06-17T16:38:40.580Z,20.70
2018-06-17T16:41:09.113Z,20.60
2018-06-17T16:43:37.658Z,20.60
2018-06-17T16:46:06.124Z,20.60
2018-06-17T16:48:34.605Z,20.60
2018-06-17T16:51:08.629Z,20.50
2018-06-17T16:54:44.503Z,20.60
2018-06-17T16:57:18.138Z,20.70
2018-06-17T16:59:51.902Z,20.40
2018-06-17T17:02:20.544Z,20.30
2018-06-17T17:04:49.015Z,20.20
2018-06-17T17:07:17.503Z,20.30
2018-06-17T17:09:45.945Z,20.30
2018-06-17T17:12:14.459Z,20.30
2018-06-17T17:14:42.910Z,20.20
2018-06-17T17:17:11.404Z,19.80
2018-06-17T17:19:39.903Z,19.80
2018-06-17T17:22:08.987Z,19.90
2018-06-17T17:24:37.476Z,19.80
2018-06-17T17:27:05.925Z,19.50
2018-06-17T17:29:34.402Z,19.60
2018-06-17T17:32:08.274Z,19.70
2018-06-17T17:34:41.978Z,19.60
2018-06-17T17:37:15.804Z,19.50
2018-06-17T17:39:49.692Z,19.60
2018-06-17T17:42:18.324Z,19.60
2018-06-17T17:44:51.950Z,19.60
2018-06-17T17:47:22.648Z,19.60
2018-06-17T17:49:51.406Z,19.40
2018-06-17T17:52:20.123Z,19.40
2018-06-17T17:54:48.641Z,19.40
2018-06-17T17:57:17.457Z,19.30
2018-06-17T17:59:46.454Z,19.30
2018-06-17T18:02:14.931Z,19.20
2018-06-17T18:04:43.376Z,19.10
2018-06-17T18:07:11.812Z,19.10
2018-06-17T18:09:40.373Z,19.10
2018-06-17T18:12:08.818Z,18.90
2018-06-17T18:14:37.333Z,18.90
2018-06-17T18:17:05.784Z,18.80
2018-06-17T18:19:34.267Z,18.90
2018-06-17T18:22:02.811Z,18.90
2018-06-17T18:24:31.246Z,18.80
2018-06-17T18:27:04.957Z,18.80
2018-06-17T18:29:38.704Z,18.70
2018-06-17T18:32:12.569Z,18.70
2018-06-17T18:34:46.245Z,18.70
2018-06-17T18:37:14.883Z,18.70
2018-06-17T18:39:43.350Z,18.70
2018-06-17T18:42:11.860Z,18.70
2018-06-17T18:44:40.308Z,18.60
2018-06-17T18:47:08.768Z,18.70
2018-06-17T18:49:37.255Z,18.60
2018-06-17T18:52:05.738Z,18.60
2018-06-17T18:54:34.207Z,18.60
2018-06-17T18:57:02.651Z,18.60
2018-06-17T18:59:31.720Z,18.50
2018-06-17T19:02:00.197Z,18.30
2018-06-17T19:04:28.725Z,18.40
2018-06-17T19:06:57.215Z,18.30
2018-06-17T19:09:30.890Z,18.30
2018-06-17T19:12:04.699Z,18.30
2018-06-17T19:14:38.519Z,18.30
2018-06-17T19:17:12.506Z,18.30
2018-06-17T19:19:40.975Z,18.20
2018-06-17T19:22:09.415Z,18.10
2018-06-17T19:33:48.618Z,18.20
2018-06-17T19:36:17.057Z,18.20
2018-06-17T19:38:45.486Z,17.90
2018-06-17T19:41:13.921Z,17.90
2018-06-17T19:43:42.357Z,17.90
2018-06-17T19:46:10.825Z,17.80
2018-06-17T19:48:39.309Z,17.80
2018-06-17T19:51:13.074Z,17.90
2018-06-17T19:53:46.935Z,17.80
2018-06-17T19:56:20.713Z,17.80
2018-06-17T19:58:55.068Z,17.80
2018-06-17T20:01:23.517Z,17.70
2018-06-17T20:03:51.980Z,17.70
2018-06-17T20:06:20.459Z,17.70
2018-06-17T20:08:48.872Z,17.70
2018-06-17T20:11:17.312Z,17.60
2018-06-17T20:13:45.732Z,17.60
2018-06-17T20:16:14.192Z,17.60
2018-06-17T20:18:42.665Z,17.60
2018-06-17T20:21:11.134Z,17.70
2018-06-17T20:23:39.593Z,17.60
2018-06-17T20:26:08.048Z,17.60
2018-06-17T20:28:36.512Z,17.60
2018-06-17T20:33:38.377Z,17.50
2018-06-17T20:36:12.049Z,17.50
2018-06-17T20:38:45.892Z,17.50
2018-06-17T20:41:19.818Z,17.50
2018-06-17T20:43:51.037Z,17.50
2018-06-17T20:46:19.551Z,17.40
2018-06-17T20:48:48.912Z,17.30
2018-06-17T20:51:17.851Z,17.30
2018-06-17T20:53:46.313Z,17.20
2018-06-17T20:56:14.811Z,17.10
2018-06-17T20:58:43.297Z,17.00
2018-06-17T21:01:11.774Z,16.90
2018-06-17T21:03:40.273Z,16.90
2018-06-17T21:06:08.741Z,16.90
2018-06-17T21:08:37.214Z,16.90
2018-06-17T21:11:05.668Z,16.80
2018-06-17T21:13:34.153Z,16.80
2018-06-17T21:16:02.626Z,16.80
2018-06-17T21:18:36.364Z,16.80
2018-06-17T21:21:09.945Z,16.80
2018-06-17T21:23:43.718Z,16.80
2018-06-17T21:26:17.358Z,16.80
2018-06-17T21:28:46.021Z,16.70
2018-06-17T21:31:14.529Z,16.70
2018-06-17T21:33:42.992Z,16.70
2018-06-17T21:36:11.523Z,16.70
2018-06-17T21:38:39.989Z,16.70
2018-06-17T21:41:08.526Z,16.60
2018-06-17T21:43:36.973Z,16.60
2018-06-17T21:46:05.964Z,16.60
2018-06-17T21:48:34.410Z,16.60
2018-06-17T21:51:02.844Z,16.60
2018-06-17T21:53:31.303Z,16.60
2018-06-17T21:55:59.754Z,16.60
2018-06-17T21:58:33.580Z,16.60
2018-06-17T22:01:02.036Z,16.60
2018-06-17T22:03:30.462Z,16.60
2018-06-17T22:05:58.906Z,16.60
2018-06-17T22:08:32.636Z,16.60
2018-06-17T22:11:06.346Z,16.60
2018-06-17T22:13:40.088Z,16.60
2018-06-17T22:16:13.886Z,16.60
2018-06-17T22:18:42.334Z,16.50
2018-06-17T22:21:10.968Z,16.50
2018-06-17T22:23:39.393Z,16.50
2018-06-17T22:26:07.943Z,16.50
2018-06-17T22:28:36.534Z,16.50
2018-06-17T22:31:04.978Z,16.50
2018-06-17T22:33:33.415Z,16.50
2018-06-17T22:36:01.879Z,16.50
2018-06-17T22:38:30.446Z,16.50
2018-06-17T22:40:58.861Z,16.50
2018-06-17T22:43:27.312Z,16.50
2018-06-17T22:45:55.734Z,16.50
2018-06-17T22:48:24.170Z,16.40
2018-06-17T22:50:52.616Z,16.40
2018-06-17T22:53:32.533Z,16.50
2018-06-17T22:56:01.014Z,16.50
2018-06-17T22:58:34.748Z,16.50
2018-06-17T23:01:08.669Z,16.40
2018-06-17T23:03:42.455Z,16.30
2018-06-17T23:06:16.104Z,16.20
2018-06-17T23:08:49.849Z,16.20
2018-06-17T23:11:18.324Z,16.20
2018-06-17T23:13:46.775Z,16.00
2018-06-17T23:16:15.242Z,16.00
2018-06-17T23:18:43.694Z,16.00
2018-06-17T23:21:12.179Z,16.00
2018-06-17T23:23:40.629Z,16.10
2018-06-17T23:26:09.057Z,16.00
2018-06-17T23:28:37.548Z,15.90
2018-06-17T23:31:06.019Z,15.90
2018-06-17T23:33:34.519Z,15.90
2018-06-17T23:36:03.115Z,15.80
2018-06-17T23:38:31.545Z,15.80
2018-06-17T23:41:00.018Z,15.90
2018-06-17T23:43:28.442Z,15.70
2018-06-17T23:46:02.161Z,15.70
2018-06-17T23:48:36.023Z,15.90
2018-06-17T23:51:09.726Z,15.90
2018-06-17T23:53:45.842Z,16.00
2018-06-17T23:56:14.518Z,15.90
2018-06-17T23:58:42.972Z,16.00
